Flight Track Log - Related Links

Times and Time Zones

All times are in EDT time to prevent confusion due to time zone crossing. See the UPS1231 flight status page for this flight to view local times or setup timezone preferences in your user account.

Time Position Orientation Groundspeed Altitude Reporting Facility
EDT Latitude Longitude Course Direction KTS MPH feet Rate Location/Type
Fri 10:12:49 PM 37.4040 -77.4720 264° West 274 315 7,300  Level FlightAware ADS-B
Fri 10:13:21 PM 37.3990 -77.5240 263° West 289 333 8,700 1,875 Climbing FlightAware ADS-B
Fri 10:13:37 PM 37.3970 -77.5440 263° West 291 335 8,800 1,650 Climbing FlightAware ADS-B
Fri 10:14:01 PM 37.3920 -77.5950 263° West 295 339 9,800 2,226 Climbing FlightAware ADS-B
Fri 10:14:39 PM 37.3880 -77.6610 266° West 330 380 11,100 2,027 Climbing FlightAware ADS-B
Fri 10:15:15 PM 37.3810 -77.7350 263° West 360 414 12,300 2,417 Climbing FlightAware ADS-B
Fri 10:15:51 PM 37.3740 -77.8080 263° West 368 423 14,000 2,700 Climbing FlightAware ADS-B
Fri 10:16:35 PM 37.3690 -77.8780 265° West 380 437 15,900 2,519 Climbing FlightAware ADS-B
Fri 10:17:12 PM 37.3580 -77.9870 263° West 386 444 17,400 2,301 Climbing FlightAware ADS-B
Fri 10:17:48 PM 37.3540 -78.0660 266° West 394 453 18,700 2,229 Climbing FlightAware ADS-B
Fri 10:18:22 PM 37.3520 -78.1490 268° West 401 461 20,000 2,143 Climbing FlightAware ADS-B
Fri 10:18:58 PM 37.3490 -78.2320 267° West 406 467 21,200 1,971 Climbing FlightAware ADS-B
Fri 10:19:32 PM 37.3470 -78.3150 268° West 411 473 22,300 2,000 Climbing FlightAware ADS-B
Fri 10:20:07 PM 37.3450 -78.3960 268° West 415 478 23,500 2,000 Climbing FlightAware ADS-B
Fri 10:20:44 PM 37.3420 -78.4890 268° West 419 482 24,700 1,808 Climbing FlightAware ADS-B
Fri 10:21:20 PM 37.3390 -78.5760 268° West 424 488 25,700 1,676 Climbing FlightAware ADS-B
Fri 10:21:52 PM 37.3360 -78.6550 267° West 429 494 26,600 1,147 Climbing FlightAware ADS-B
Fri 10:22:28 PM 37.3330 -78.7470 268° West 436 502 27,000 917 Climbing FlightAware ADS-B
Fri 10:23:04 PM 37.3300 -78.8360 268° West 437 503 27,700 1,543 Climbing FlightAware ADS-B
Fri 10:23:38 PM 37.3270 -78.9210 267° West 437 503 28,800 2,053 Climbing FlightAware ADS-B
Fri 10:24:20 PM 37.3240 -79.0290 268° West 431 496 30,300 2,154 Climbing FlightAware ADS-B
Fri 10:24:56 PM 37.3200 -79.1190 267° West 427 491 31,600 1,233 Climbing FlightAware ADS-B
Fri 10:25:33 PM 37.3170 -79.1980 267° West 427 491 31,800 164 Climbing FlightAware ADS-B
Fri 10:26:09 PM 37.3140 -79.2740 267° West 427 491 31,800  Level FlightAware ADS-B
Fri 10:26:45 PM 37.3110 -79.3500 267° West 427 491 31,800  Level FlightAware ADS-B
Fri 10:27:21 PM 37.3080 -79.4250 267° West 427 491 31,800  Level FlightAware ADS-B
Fri 10:27:57 PM 37.3040 -79.5010 266° West 427 491 31,800  Level FlightAware ADS-B
Fri 10:28:33 PM 37.3010 -79.5770 267° West 427 491 31,800  Level FlightAware ADS-B
Fri 10:29:10 PM 37.2980 -79.6550 267° West 427 491 31,800  Level FlightAware ADS-B
Fri 10:29:46 PM 37.2950 -79.7310 267° West 427 491 31,800  Level FlightAware ADS-B
Fri 10:30:22 PM 37.2920 -79.8070 267° West 427 491 31,800  Level FlightAware ADS-B
Fri 10:30:58 PM 37.2890 -79.8830 267° West 427 491 31,800  Level FlightAware ADS-B
Fri 10:31:34 PM 37.2850 -79.9590 266° West 427 491 31,800  Level FlightAware ADS-B
Fri 10:32:10 PM 37.2820 -80.0350 267° West 427 491 31,800  Level FlightAware ADS-B
Fri 10:32:46 PM 37.2790 -80.1110 267° West 427 491 31,800  Level FlightAware ADS-B
Fri 10:33:22 PM 37.2760 -80.1860 267° West 427 491 31,800  Level FlightAware ADS-B
Fri 10:33:59 PM 37.2730 -80.2640 267° West 427 491 31,800  Level FlightAware ADS-B
Fri 10:34:35 PM 37.2690 -80.3400 266° West 427 491 31,800 113 Level FlightAware ADS-B
Fri 10:35:45 PM 37.2547 -80.7058 266° West 423 487 32,000 92 Climbing Indianapolis Center
Fri 10:36:46 PM 37.2464 -80.8492 266° West 424 488 32,000  Level Indianapolis Center
Fri 10:42:24 PM 37.1991 -81.6955 266° West 425 489 32,000  Level FlightAware ADS-B
Fri 10:42:54 PM 37.1947 -81.7712 266° West 424 488 32,000  Level FlightAware ADS-B
Fri 10:43:25 PM 37.1903 -81.8454 266° West 423 487 32,000  Level FlightAware ADS-B
Fri 10:43:55 PM 37.1859 -81.9194 266° West 423 487 32,000  Level FlightAware ADS-B
Fri 10:44:30 PM 37.1807 -82.0061 266° West 423 487 32,000  Level FlightAware ADS-B
Fri 10:45:01 PM 37.1762 -82.0811 266° West 423 487 32,000  Level FlightAware ADS-B
Fri 10:45:40 PM 37.1701 -82.1767 265° West 423 487 32,000  Level FlightAware ADS-B
Fri 10:46:11 PM 37.1653 -82.2522 265° West 423 487 32,000  Level FlightAware ADS-B
Fri 10:46:43 PM 37.1602 -82.3302 265° West 423 487 32,000  Level FlightAware ADS-B
Fri 10:47:15 PM 37.1552 -82.4087 265° West 423 487 32,000  Level FlightAware ADS-B
Fri 10:47:46 PM 37.1502 -82.4858 265° West 423 487 32,000  Level FlightAware ADS-B
Fri 10:48:17 PM 37.1453 -82.5609 265° West 423 487 32,000  Level FlightAware ADS-B
Fri 10:48:48 PM 37.1403 -82.6379 265° West 423 487 32,000  Level FlightAware ADS-B
Fri 10:49:19 PM 37.1353 -82.7135 265° West 423 487 32,000  Level FlightAware ADS-B
Fri 10:49:49 PM 37.1304 -82.7870 265° West 424 488 32,000  Level FlightAware ADS-B
Fri 10:50:20 PM 37.1253 -82.8634 265° West 424 488 32,000  Level FlightAware ADS-B
Fri 10:50:51 PM 37.1201 -82.9399 265° West 424 488 32,000  Level FlightAware ADS-B
Fri 10:51:21 PM 37.1151 -83.0134 265° West 423 487 32,000  Level FlightAware ADS-B
Fri 10:51:52 PM 37.1099 -83.0883 265° West 424 488 32,000  Level FlightAware ADS-B
Fri 10:52:22 PM 37.1046 -83.1633 265° West 424 488 32,000  Level FlightAware ADS-B
Fri 10:52:53 PM 37.0993 -83.2389 265° West 424 488 32,000  Level FlightAware ADS-B
Fri 10:53:23 PM 37.0940 -83.3123 265° West 424 488 32,000  Level FlightAware ADS-B
Fri 10:53:53 PM 37.0887 -83.3862 265° West 424 488 32,000  Level FlightAware ADS-B
Fri 10:54:10 PM 37.0862 -83.4263 266° West 423 487 32,000  Level FlightAware ADS-B
Fri 10:54:17 PM 37.0861 -83.4454 270° West 422 486 32,000  Level FlightAware ADS-B
Fri 10:54:32 PM 37.0890 -83.4794 276° West 420 483 32,000  Level FlightAware ADS-B
Fri 10:54:39 PM 37.0919 -83.4961 282° West 420 483 32,000  Level FlightAware ADS-B
Fri 10:54:51 PM 37.0992 -83.5248 288° West 420 483 32,000  Level FlightAware ADS-B
Fri 10:55:21 PM 37.1249 -83.5916 296° West 420 483 32,000 -197 Level FlightAware ADS-B
Fri 10:55:52 PM 37.1518 -83.6594 296° West 420 483 31,800 -871 Descending FlightAware ADS-B
Fri 10:56:23 PM 37.1782 -83.7256 297° West 422 486 31,100 -1,116 Descending FlightAware ADS-B
Fri 10:57:18 PM 37.2256 -83.8476 296° West 420 483 30,200 -1,047 Descending FlightAware ADS-B
Fri 10:57:49 PM 37.2521 -83.9166 296° West 420 483 29,600 -1,120 Descending FlightAware ADS-B
Fri 10:58:33 PM 37.2888 -84.0113 296° West 407 468 28,800 -1,807 Descending FlightAware ADS-B
Fri 10:59:12 PM 37.3209 -84.0941 296° West 405 466 27,100 -2,696 Descending FlightAware ADS-B
Fri 10:59:42 PM 37.3457 -84.1578 296° West 405 466 25,700 -2,677 Descending FlightAware ADS-B
Fri 11:00:17 PM 37.3751 -84.2324 296° West 406 467 24,200 -2,206 Descending FlightAware ADS-B
Fri 11:00:50 PM 37.4018 -84.3002 296° West 386 444 23,200 -2,095 Descending FlightAware ADS-B
Fri 11:01:20 PM 37.4250 -84.3591 296° West 381 438 22,000 -2,262 Descending FlightAware ADS-B
Fri 11:01:51 PM 37.4486 -84.4192 296° West 377 434 20,900 -2,447 Descending FlightAware ADS-B
Fri 11:02:36 PM 37.4830 -84.5070 296° West 372 428 18,900 -2,667 Descending FlightAware ADS-B
Fri 11:03:12 PM 37.5100 -84.5770 296° West 372 428 17,300 -2,735 Descending FlightAware ADS-B
Fri 11:03:44 PM 37.5330 -84.6370 296° West 376 433 15,800 -2,471 Descending FlightAware ADS-B
Fri 11:04:20 PM 37.5610 -84.7100 296° West 361 415 14,500 -2,384 Descending FlightAware ADS-B
Fri 11:04:57 PM 37.5880 -84.7790 296° West 358 412 12,900 -2,559 Descending FlightAware ADS-B
Fri 11:05:28 PM 37.6100 -84.8350 296° West 354 407 11,600 -1,791 Descending FlightAware ADS-B
Fri 11:06:04 PM 37.6350 -84.9030 295° West 348 400 10,900 -568 Descending FlightAware ADS-B
Fri 11:06:42 PM 37.6680 -84.9720 301° West 349 402 10,900 -405 Level FlightAware ADS-B
Fri 11:07:18 PM 37.7060 -85.0250 312° West 348 400 10,400 -938 Descending FlightAware ADS-B
Fri 11:07:46 PM 37.7370 -85.0680 312° West 347 399 9,900 -947 Descending FlightAware ADS-B
Fri 11:07:56 PM 37.7480 -85.0840 311° West 346 398 9,800 -167 Descending FlightAware ADS-B
Fri 11:08:22 PM 37.7740 -85.1240 309° West 319 367 9,800  Level FlightAware ADS-B
Fri 11:08:34 PM 37.7830 -85.1420 302° West 304 350 9,800  Level FlightAware ADS-B
Fri 11:08:54 PM 37.7950 -85.1740 295° West 286 329 9,800  Level FlightAware ADS-B
Fri 11:09:18 PM 37.8080 -85.2090 295° West 282 325 9,800  Level FlightAware ADS-B
Fri 11:09:30 PM 37.8150 -85.2270 296° West 282 325 9,800 -563 Level FlightAware ADS-B
Fri 11:09:50 PM 37.8260 -85.2560 296° West 280 322 9,500 -1,250 Descending FlightAware ADS-B
Fri 11:10:18 PM 37.8410 -85.2970 295° West 279 321 8,800 -1,600 Descending FlightAware ADS-B
Fri 11:10:35 PM 37.8510 -85.3230 296° West 278 320 8,300 -1,622 Descending FlightAware ADS-B
Fri 11:10:55 PM 37.8620 -85.3530 295° West 276 318 7,800 -1,400 Descending FlightAware ADS-B
Fri 11:11:05 PM 37.8680 -85.3680 297° West 276 318 7,600 -1,440 Descending FlightAware ADS-B
Fri 11:11:45 PM 37.8890 -85.4260 295° West 272 313 6,600 -1,600 Descending FlightAware ADS-B
Fri 11:12:05 PM 37.8990 -85.4550 294° West 271 312 6,000 -1,500 Descending FlightAware ADS-B
Fri 11:12:25 PM 37.9090 -85.4830 294° West 269 310 5,600 -1,350 Descending FlightAware ADS-B
Fri 11:12:45 PM 37.9200 -85.5120 296° West 268 308 5,100 -1,500 Descending FlightAware ADS-B
Fri 11:13:09 PM 37.9310 -85.5420 295° West 267 307 4,500 -1,500 Descending FlightAware ADS-B
Fri 11:13:13 PM 37.9360 -85.5500 308° West 269 310 4,400 -1,200 Descending FlightAware ADS-B
Fri 11:13:29 PM 37.9510 -85.5670 318° Northwest 264 304 4,100 -1,000 Descending FlightAware ADS-B
Fri 11:13:49 PM 37.9700 -85.5860 322° Northwest 252 290 3,800 -947 Descending FlightAware ADS-B
Fri 11:14:07 PM 37.9850 -85.6010 322° Northwest 239 275 3,500 -889 Descending FlightAware ADS-B
Fri 11:14:43 PM 38.0150 -85.6310 322° Northwest 211 243 3,000 -931 Descending FlightAware ADS-B
Fri 11:15:05 PM 38.0310 -85.6470 322° Northwest 201 231 2,600 -1,000 Descending FlightAware ADS-B
Fri 11:15:25 PM 38.0460 -85.6610 324° Northwest 198 228 2,300 -409 Descending FlightAware ADS-B
Fri 11:15:49 PM 38.0620 -85.6760 324° Northwest 178 205 2,300 -150 Level FlightAware ADS-B
Fri 11:16:05 PM 38.0730 -85.6870 322° Northwest 175 201 2,200 -563 Descending FlightAware ADS-B
Fri 11:16:21 PM 38.0840 -85.6950 330° Northwest 168 193 2,000 -750 Descending FlightAware ADS-B
Fri 11:16:37 PM 38.0960 -85.7000 342° North 162 186 1,800 -833 Descending FlightAware ADS-B
Fri 11:16:57 PM 38.1090 -85.7050 343° North 152 175 1,500 -900 Descending FlightAware ADS-B
Fri 11:17:17 PM 38.1220 -85.7090 346° North 148 170 1,200 -667 Descending FlightAware ADS-B
Fri 11:17:33 PM 38.1330 -85.7130 344° North 145 167 1,100 -649 Descending FlightAware ADS-B
Fri 11:17:54 PM 38.1470 -85.7180 344° North 144 166 800 -750 Descending FlightAware ADS-B
Fri 11:18:13 PM 38.1580 -85.7210 348° North 134 154 600 -615 Descending FlightAware ADS-B
Fri 11:18:33 PM 38.1710 -85.7260 343° North 127 146 400 -600 Descending FlightAware ADS-B

Login

Don't have an account? Register now (free) for customized features, flight alerts, and more!